createdAt,value
2022-08-17T00:00:33.284Z,13.63
2022-08-17T00:03:03.387Z,10.13
2022-08-17T00:05:35.838Z,12.80
2022-08-17T00:08:03.325Z,10.60
2022-08-17T00:10:31.138Z,10.23
2022-08-17T00:12:59.542Z,11.90
2022-08-17T00:15:26.657Z,10.52
2022-08-17T00:17:53.721Z,14.27
2022-08-17T00:20:23.376Z,10.68
2022-08-17T00:23:24.393Z,10.27
2022-08-17T00:25:52.665Z,11.35
2022-08-17T00:28:21.018Z,13.25
2022-08-17T00:30:52.935Z,10.98
2022-08-17T00:33:30.225Z,10.25
2022-08-17T00:35:59.192Z,11.90
2022-08-17T00:38:28.057Z,10.68
2022-08-17T00:41:03.328Z,10.90
2022-08-17T00:43:58.538Z,11.73
2022-08-17T00:46:34.737Z,9.70
2022-08-17T00:49:01.603Z,8.70
2022-08-17T00:51:43.625Z,9.68
2022-08-17T00:54:20.592Z,14.18
2022-08-17T00:57:24.155Z,9.02
2022-08-17T01:00:02.440Z,8.63
2022-08-17T01:02:52.100Z,10.13
2022-08-17T01:05:25.950Z,11.27
2022-08-17T01:07:54.301Z,9.85
2022-08-17T01:10:57.486Z,9.05
2022-08-17T01:13:18.080Z,13.52
2022-08-17T01:16:27.612Z,12.55
2022-08-17T01:19:03.169Z,8.85
2022-08-17T01:22:14.366Z,10.10
2022-08-17T01:24:48.277Z,8.90
2022-08-17T01:27:18.445Z,11.10
2022-08-17T01:29:53.304Z,8.13
2022-08-17T01:32:20.427Z,10.68
2022-08-17T01:34:50.414Z,9.82
2022-08-17T01:37:27.589Z,10.48
2022-08-17T01:40:04.169Z,12.50
2022-08-17T01:42:41.971Z,10.90
2022-08-17T01:45:16.604Z,12.05
2022-08-17T01:47:43.777Z,11.32
2022-08-17T01:50:16.711Z,13.18
2022-08-17T01:52:47.443Z,10.02
2022-08-17T01:55:22.478Z,11.02
2022-08-17T01:57:52.753Z,12.88
2022-08-17T02:00:19.566Z,10.68
2022-08-17T02:02:46.407Z,11.10
2022-08-17T02:05:13.944Z,13.20
2022-08-17T02:07:59.521Z,12.00
2022-08-17T02:10:33.813Z,10.65
2022-08-17T02:13:04.192Z,13.20
2022-08-17T02:15:31.935Z,11.57
2022-08-17T02:17:58.842Z,15.80
2022-08-17T02:20:41.740Z,8.70
2022-08-17T02:23:13.394Z,11.25
2022-08-17T02:25:43.726Z,11.10
2022-08-17T02:28:11.180Z,10.30
2022-08-17T02:31:01.640Z,12.35
2022-08-17T02:33:25.349Z,10.50
2022-08-17T02:36:12.847Z,11.20
2022-08-17T02:38:41.099Z,10.75
2022-08-17T02:41:08.562Z,12.15
2022-08-17T02:43:35.819Z,9.88
2022-08-17T02:46:02.717Z,10.57
2022-08-17T02:48:31.158Z,10.38
2022-08-17T02:50:59.533Z,12.27
2022-08-17T02:53:27.119Z,13.27
2022-08-17T02:55:53.961Z,11.35
2022-08-17T02:58:34.481Z,10.93
2022-08-17T03:01:05.907Z,9.55
2022-08-17T03:03:34.318Z,10.05
2022-08-17T03:06:01.832Z,17.13
2022-08-17T03:08:28.928Z,12.88
2022-08-17T03:10:55.938Z,11.80
2022-08-17T03:13:23.307Z,10.35
2022-08-17T03:15:50.523Z,12.10
2022-08-17T03:18:25.595Z,10.75
2022-08-17T03:21:00.809Z,10.90
2022-08-17T03:23:29.620Z,12.48
2022-08-17T03:25:57.259Z,9.82
2022-08-17T03:28:25.510Z,13.25
2022-08-17T03:30:52.600Z,11.80
2022-08-17T03:33:20.031Z,12.23
2022-08-17T03:35:47.293Z,10.93
2022-08-17T03:38:15.155Z,10.52
2022-08-17T03:40:58.156Z,11.07
2022-08-17T03:43:32.050Z,9.38
2022-08-17T03:46:27.645Z,11.88
2022-08-17T03:49:19.283Z,11.20
2022-08-17T03:52:04.668Z,9.77
2022-08-17T03:54:50.246Z,10.38
2022-08-17T03:57:17.513Z,10.68
2022-08-17T03:59:45.025Z,10.93
2022-08-17T04:02:26.825Z,10.82
2022-08-17T04:04:54.285Z,11.00
2022-08-17T04:07:24.633Z,12.70
2022-08-17T04:09:51.586Z,10.13
2022-08-17T04:12:22.358Z,12.48
2022-08-17T04:14:52.810Z,10.02
2022-08-17T04:17:28.520Z,10.95
2022-08-17T04:19:56.838Z,9.85
2022-08-17T04:22:31.766Z,14.02
2022-08-17T04:25:07.987Z,10.15
2022-08-17T04:27:35.581Z,10.38
2022-08-17T04:30:02.678Z,13.25
2022-08-17T04:33:19.178Z,9.30
2022-08-17T04:35:28.722Z,12.75
2022-08-17T04:37:56.006Z,11.60
2022-08-17T04:40:43.742Z,10.23
2022-08-17T04:43:20.402Z,9.63
2022-08-17T04:45:56.253Z,10.30
2022-08-17T04:48:40.809Z,9.38
2022-08-17T04:51:15.481Z,9.10
2022-08-17T04:53:53.827Z,10.80
2022-08-17T04:56:25.063Z,10.45
2022-08-17T04:58:55.604Z,8.77
2022-08-17T05:01:25.985Z,13.43
2022-08-17T05:03:56.216Z,11.98
2022-08-17T05:06:23.601Z,10.50
2022-08-17T05:08:51.000Z,12.48
2022-08-17T05:11:18.006Z,11.40
2022-08-17T05:13:45.130Z,12.80
2022-08-17T05:16:12.388Z,10.45
2022-08-17T05:18:39.477Z,12.75
2022-08-17T05:21:08.291Z,10.18
2022-08-17T05:23:42.616Z,10.93
2022-08-17T05:26:25.546Z,10.52
2022-08-17T05:28:59.534Z,12.00
2022-08-17T05:31:29.433Z,15.40
2022-08-17T05:33:56.706Z,10.70
2022-08-17T05:36:42.984Z,9.95
2022-08-17T05:39:15.908Z,9.70
2022-08-17T05:41:44.430Z,10.82
2022-08-17T05:44:11.247Z,9.93
2022-08-17T05:46:42.539Z,10.48
2022-08-17T05:49:11.044Z,12.05
2022-08-17T05:52:01.030Z,11.75
2022-08-17T05:54:52.421Z,10.15
2022-08-17T05:57:55.924Z,9.73
2022-08-17T06:00:33.710Z,10.98
2022-08-17T06:03:29.649Z,12.55
2022-08-17T06:06:50.592Z,12.95
2022-08-17T06:09:33.930Z,12.57
2022-08-17T06:12:19.770Z,14.68
2022-08-17T06:15:24.563Z,12.90
2022-08-17T06:18:01.612Z,12.20
2022-08-17T06:20:48.962Z,11.38
2022-08-17T06:23:25.680Z,12.02
2022-08-17T06:26:03.632Z,12.07
2022-08-17T06:29:02.829Z,10.27
2022-08-17T06:31:36.734Z,11.63
2022-08-17T06:34:09.621Z,9.38
2022-08-17T06:37:19.995Z,10.00
2022-08-17T06:40:08.159Z,11.73
2022-08-17T06:43:02.292Z,11.95
2022-08-17T06:45:49.352Z,15.50
2022-08-17T06:48:33.039Z,17.92
2022-08-17T06:51:22.948Z,14.15
2022-08-17T06:54:37.584Z,10.93
2022-08-17T06:57:16.422Z,11.30
2022-08-17T07:00:26.681Z,9.52
2022-08-17T07:03:10.544Z,10.18
2022-08-17T07:05:51.330Z,10.55
2022-08-17T07:08:38.018Z,9.93
2022-08-17T07:11:51.852Z,9.70
2022-08-17T07:14:45.805Z,12.45
2022-08-17T07:17:18.346Z,9.43
2022-08-17T07:19:49.738Z,12.07
2022-08-17T07:22:30.553Z,9.73
2022-08-17T07:25:20.935Z,11.30
2022-08-17T07:27:53.320Z,10.75
2022-08-17T07:30:30.399Z,10.82
2022-08-17T07:33:20.050Z,9.23
2022-08-17T07:35:48.373Z,10.52
2022-08-17T07:38:25.770Z,12.25
2022-08-17T07:41:05.869Z,8.77
2022-08-17T07:43:44.929Z,12.75
2022-08-17T07:46:34.371Z,8.95
2022-08-17T07:49:03.140Z,10.65
2022-08-17T07:51:36.524Z,9.23
2022-08-17T07:54:35.705Z,8.70
2022-08-17T07:57:29.908Z,14.52
2022-08-17T08:00:03.142Z,8.80
2022-08-17T08:02:45.417Z,9.52
2022-08-17T08:05:50.266Z,7.68
2022-08-17T08:08:43.612Z,4.55
2022-08-17T08:11:15.385Z,10.57
2022-08-17T08:13:45.420Z,7.65
2022-08-17T08:16:20.535Z,6.68
2022-08-17T08:18:55.303Z,6.90
2022-08-17T08:21:54.759Z,5.88
2022-08-17T08:25:03.352Z,5.63
2022-08-17T08:27:55.118Z,6.30
2022-08-17T08:30:23.507Z,7.45
2022-08-17T08:33:22.781Z,6.75
2022-08-17T08:35:58.819Z,5.93
2022-08-17T08:38:46.252Z,7.53
2022-08-17T08:41:40.511Z,5.40
2022-08-17T08:45:01.151Z,5.90
2022-08-17T08:48:06.165Z,5.32
2022-08-17T08:51:08.801Z,5.05
2022-08-17T08:53:58.393Z,6.93
2022-08-17T08:56:49.808Z,4.93
2022-08-17T08:59:58.011Z,5.43
2022-08-17T09:02:46.078Z,7.00
2022-08-17T09:05:33.668Z,5.35
2022-08-17T09:08:18.944Z,6.53
2022-08-17T09:11:15.987Z,7.07
2022-08-17T09:14:06.045Z,5.53
2022-08-17T09:17:08.948Z,4.20
2022-08-17T09:19:54.203Z,5.95
2022-08-17T09:22:33.349Z,6.38
2022-08-17T09:25:28.380Z,5.40
2022-08-17T09:28:03.803Z,4.60
2022-08-17T09:30:45.521Z,9.88
2022-08-17T09:33:19.632Z,6.30
2022-08-17T09:36:11.404Z,6.43
2022-08-17T09:38:54.008Z,5.82
2022-08-17T09:41:33.331Z,5.43
2022-08-17T09:44:55.201Z,6.38
2022-08-17T09:47:34.510Z,5.75
2022-08-17T09:50:16.905Z,6.15
2022-08-17T09:52:44.229Z,7.65
2022-08-17T09:55:11.207Z,5.32
2022-08-17T09:58:22.791Z,4.40
2022-08-17T10:01:21.093Z,6.05
2022-08-17T10:04:20.514Z,6.85
2022-08-17T10:07:01.363Z,5.75
2022-08-17T10:09:55.822Z,5.05
2022-08-17T10:12:48.583Z,6.53
2022-08-17T10:15:50.374Z,6.75
2022-08-17T10:18:31.856Z,6.38
2022-08-17T10:21:37.232Z,6.18
2022-08-17T10:25:21.002Z,7.60
2022-08-17T10:27:52.048Z,5.97
2022-08-17T10:30:24.765Z,6.70
2022-08-17T10:33:02.274Z,4.95
2022-08-17T10:36:05.290Z,5.38
2022-08-17T10:38:46.273Z,4.65
2022-08-17T10:41:27.345Z,4.60
2022-08-17T10:44:40.425Z,4.65
2022-08-17T10:47:11.554Z,5.28
2022-08-17T10:49:54.154Z,5.40
2022-08-17T10:52:26.066Z,6.07
2022-08-17T10:54:56.685Z,4.90
2022-08-17T10:57:44.806Z,5.55
2022-08-17T11:00:24.323Z,5.63
2022-08-17T11:02:57.383Z,4.20
2022-08-17T11:05:43.988Z,8.52
2022-08-17T11:08:56.534Z,5.55
2022-08-17T11:11:47.936Z,6.70
2022-08-17T11:14:32.455Z,7.10
2022-08-17T11:17:30.010Z,6.60
2022-08-17T11:20:09.256Z,3.78
2022-08-17T11:23:26.017Z,5.60
2022-08-17T11:25:57.728Z,5.25
2022-08-17T11:28:35.938Z,5.18
2022-08-17T11:31:38.837Z,6.10
2022-08-17T11:34:26.496Z,4.63
2022-08-17T11:37:38.930Z,4.25
2022-08-17T11:40:25.461Z,7.13
2022-08-17T11:43:08.191Z,5.28
2022-08-17T11:46:02.296Z,4.28
2022-08-17T11:49:11.790Z,4.22
2022-08-17T11:52:04.791Z,7.30
2022-08-17T11:54:34.166Z,6.97
2022-08-17T11:57:27.060Z,4.43
2022-08-17T12:00:06.881Z,6.03
2022-08-17T12:02:38.927Z,7.97
2022-08-17T12:05:14.269Z,7.10
2022-08-17T12:08:01.185Z,9.25
2022-08-17T12:10:32.575Z,5.47
2022-08-17T12:13:14.363Z,5.63
2022-08-17T12:15:49.661Z,6.97
2022-08-17T12:18:32.367Z,6.57
2022-08-17T12:21:48.832Z,4.95
2022-08-17T12:24:31.187Z,6.57
2022-08-17T12:27:05.522Z,4.85
2022-08-17T12:29:39.113Z,5.05
2022-08-17T12:32:16.514Z,6.45
2022-08-17T12:34:46.520Z,8.60
2022-08-17T12:37:20.610Z,7.38
2022-08-17T12:40:02.929Z,5.50
2022-08-17T12:42:39.280Z,5.47
2022-08-17T12:45:34.230Z,6.35
2022-08-17T12:48:09.391Z,5.53
2022-08-17T12:50:44.371Z,4.88
2022-08-17T12:53:24.908Z,7.35
2022-08-17T12:55:53.695Z,4.03
2022-08-17T12:58:31.377Z,5.85
2022-08-17T13:01:09.819Z,5.18
2022-08-17T13:03:45.711Z,5.03
2022-08-17T13:06:27.716Z,5.30
2022-08-17T13:08:54.790Z,3.40
2022-08-17T13:11:24.852Z,4.50
2022-08-17T13:13:56.084Z,3.28
2022-08-17T13:16:30.656Z,4.82
2022-08-17T13:19:15.294Z,4.45
2022-08-17T13:21:49.881Z,4.65
2022-08-17T13:24:20.439Z,4.65
2022-08-17T13:26:59.208Z,7.75
2022-08-17T13:29:39.843Z,2.83
2022-08-17T13:32:13.224Z,4.93
2022-08-17T13:35:13.796Z,4.03
2022-08-17T13:38:06.425Z,3.33
2022-08-17T13:40:41.697Z,3.47
2022-08-17T13:43:10.383Z,3.42
2022-08-17T13:45:50.854Z,3.47
2022-08-17T13:48:29.244Z,4.03
2022-08-17T13:50:59.491Z,3.50
2022-08-17T13:53:40.247Z,3.80
2022-08-17T13:56:37.675Z,3.63
2022-08-17T13:59:06.066Z,4.88
2022-08-17T14:01:38.244Z,3.40
2022-08-17T14:04:10.570Z,3.78
2022-08-17T14:07:12.869Z,3.42
2022-08-17T14:10:06.402Z,6.00
2022-08-17T14:12:35.408Z,4.18
2022-08-17T14:15:02.528Z,5.85
2022-08-17T14:17:34.958Z,4.60
2022-08-17T14:20:09.514Z,7.90
2022-08-17T14:22:42.842Z,4.72
2022-08-17T14:25:14.046Z,3.95
2022-08-17T14:27:51.980Z,4.20
2022-08-17T14:30:24.517Z,5.43
2022-08-17T14:32:52.902Z,4.03
2022-08-17T14:35:22.795Z,5.10
2022-08-17T14:37:51.014Z,4.07
2022-08-17T14:40:24.691Z,6.13
2022-08-17T14:42:54.386Z,5.07
2022-08-17T14:45:29.881Z,4.13
2022-08-17T14:48:04.142Z,5.60
2022-08-17T14:50:32.084Z,3.83
2022-08-17T14:53:04.543Z,4.05
2022-08-17T14:55:32.582Z,4.30
2022-08-17T14:57:59.661Z,3.85
2022-08-17T15:00:27.073Z,4.50
2022-08-17T15:02:58.427Z,4.25
2022-08-17T15:05:33.453Z,5.97
2022-08-17T15:08:02.389Z,4.93
2022-08-17T15:10:30.606Z,6.97
2022-08-17T15:12:57.727Z,5.97
2022-08-17T15:15:25.432Z,6.97
2022-08-17T15:17:52.323Z,11.27
2022-08-17T15:20:24.711Z,9.98
2022-08-17T15:22:55.643Z,11.35
2022-08-17T15:25:27.542Z,8.82
2022-08-17T15:27:55.726Z,11.20
2022-08-17T15:30:24.013Z,6.82
2022-08-17T15:32:55.252Z,9.93
2022-08-17T15:35:31.062Z,9.40
2022-08-17T15:38:11.236Z,9.90
2022-08-17T15:40:44.698Z,10.05
2022-08-17T15:43:24.795Z,8.93
2022-08-17T15:46:12.358Z,10.25
2022-08-17T15:48:42.512Z,9.63
2022-08-17T15:51:24.850Z,8.52
2022-08-17T15:53:56.011Z,7.22
2022-08-17T15:56:23.834Z,7.63
2022-08-17T15:58:51.767Z,7.38
2022-08-17T16:02:07.736Z,6.35
2022-08-17T16:04:26.561Z,6.15
2022-08-17T16:06:57.473Z,7.38
2022-08-17T16:09:24.337Z,8.05
2022-08-17T16:11:55.047Z,7.28
2022-08-17T16:14:24.357Z,7.53
2022-08-17T16:16:51.609Z,9.07
2022-08-17T16:19:19.112Z,7.25
2022-08-17T16:21:45.932Z,8.32
2022-08-17T16:24:14.986Z,8.65
2022-08-17T16:26:42.555Z,7.25
2022-08-17T16:29:10.009Z,9.15
2022-08-17T16:31:37.763Z,10.15
2022-08-17T16:34:17.946Z,9.15
2022-08-17T16:36:51.809Z,13.75
2022-08-17T16:39:26.449Z,12.15
2022-08-17T16:41:53.449Z,12.48
2022-08-17T16:44:21.865Z,12.85
2022-08-17T16:46:50.306Z,15.90
2022-08-17T16:49:24.457Z,13.10
2022-08-17T16:52:10.027Z,13.27
2022-08-17T16:54:43.401Z,12.20
2022-08-17T16:57:12.154Z,14.18
2022-08-17T16:59:43.645Z,15.48
2022-08-17T17:02:16.879Z,13.40
2022-08-17T17:05:03.180Z,17.23
2022-08-17T17:07:58.424Z,12.68
2022-08-17T17:10:49.741Z,13.50
2022-08-17T17:13:35.449Z,13.13
2022-08-17T17:16:28.418Z,15.18
2022-08-17T17:19:10.195Z,14.95
2022-08-17T17:21:49.115Z,16.60
2022-08-17T17:24:36.608Z,14.98
2022-08-17T17:27:20.866Z,14.77
2022-08-17T17:30:03.413Z,16.35
2022-08-17T17:33:09.094Z,16.52
2022-08-17T17:36:20.849Z,15.10
2022-08-17T17:38:54.317Z,17.10
2022-08-17T17:41:36.986Z,17.85
2022-08-17T17:44:17.901Z,17.00
2022-08-17T17:46:56.634Z,18.05
2022-08-17T17:49:28.608Z,20.85
2022-08-17T17:52:19.487Z,17.42
2022-08-17T17:55:19.655Z,18.38
2022-08-17T17:58:06.625Z,17.05
2022-08-17T18:00:55.417Z,18.50
2022-08-17T18:03:32.826Z,18.08
2022-08-17T18:06:18.634Z,18.20
2022-08-17T18:09:19.581Z,19.50
2022-08-17T18:12:01.039Z,18.73
2022-08-17T18:15:02.081Z,17.67
2022-08-17T18:17:29.784Z,18.70
2022-08-17T18:19:57.026Z,19.58
2022-08-17T18:22:24.762Z,16.92
2022-08-17T18:24:58.777Z,16.25
2022-08-17T18:27:38.464Z,16.50
2022-08-17T18:30:13.991Z,19.58
2022-08-17T18:32:46.281Z,18.35
2022-08-17T18:35:15.882Z,19.67
2022-08-17T18:38:20.335Z,20.75
2022-08-17T18:41:03.555Z,18.33
2022-08-17T18:43:44.251Z,16.67
2022-08-17T18:46:30.091Z,16.73
2022-08-17T18:49:26.869Z,18.98
2022-08-17T18:52:11.931Z,20.75
2022-08-17T18:54:39.084Z,19.40
2022-08-17T18:57:10.620Z,17.70
2022-08-17T18:59:49.381Z,19.02
2022-08-17T19:02:39.053Z,19.80
2022-08-17T19:05:37.902Z,19.70
2022-08-17T19:08:20.198Z,21.98
2022-08-17T19:10:52.413Z,20.25
2022-08-17T19:13:29.182Z,18.38
2022-08-17T19:16:27.729Z,22.25
2022-08-17T19:19:19.558Z,19.05
2022-08-17T19:22:13.699Z,20.05
2022-08-17T19:25:02.645Z,17.80
2022-08-17T19:27:45.715Z,19.88
2022-08-17T19:30:16.397Z,22.40
2022-08-17T19:32:43.829Z,21.05
2022-08-17T19:35:17.410Z,21.42
2022-08-17T19:38:13.277Z,20.75
2022-08-17T19:40:52.991Z,24.00
2022-08-17T19:43:55.030Z,18.98
2022-08-17T19:46:36.963Z,20.05
2022-08-17T19:49:34.463Z,20.85
2022-08-17T19:52:37.400Z,21.38
2022-08-17T19:55:16.929Z,21.25
2022-08-17T19:58:17.932Z,20.92
2022-08-17T20:00:51.682Z,21.30
2022-08-17T20:03:38.123Z,20.95
2022-08-17T20:06:13.759Z,25.52
2022-08-17T20:09:15.053Z,23.70
2022-08-17T20:11:57.030Z,23.90
2022-08-17T20:14:55.175Z,22.75
2022-08-17T20:17:30.447Z,25.02
2022-08-17T20:20:41.604Z,23.70
2022-08-17T20:24:12.478Z,21.75
2022-08-17T20:26:57.870Z,22.05
2022-08-17T20:29:40.247Z,23.52
2022-08-17T20:32:31.325Z,26.27
2022-08-17T20:35:18.247Z,25.98
2022-08-17T20:38:01.878Z,23.88
2022-08-17T20:40:40.564Z,25.05
2022-08-17T20:43:35.478Z,24.00
2022-08-17T20:46:34.725Z,21.23
2022-08-17T20:49:27.057Z,23.52
2022-08-17T20:52:01.429Z,24.35
2022-08-17T20:54:53.648Z,22.70
2022-08-17T20:57:32.576Z,25.30
2022-08-17T21:00:18.072Z,24.52
2022-08-17T21:02:51.957Z,26.52
2022-08-17T21:06:00.433Z,25.13
2022-08-17T21:08:30.829Z,24.27
2022-08-17T21:11:00.534Z,26.17
2022-08-17T21:14:17.832Z,23.05
2022-08-17T21:17:02.560Z,25.75
2022-08-17T21:20:11.363Z,26.23
2022-08-17T21:22:53.731Z,24.00
2022-08-17T21:25:48.169Z,27.73
2022-08-17T21:29:29.530Z,27.83
2022-08-17T21:32:19.052Z,26.05
2022-08-17T21:35:24.842Z,27.60
2022-08-17T21:38:02.845Z,26.13
2022-08-17T21:40:33.781Z,27.00
2022-08-17T21:43:29.278Z,26.75
2022-08-17T21:46:12.377Z,24.55
2022-08-17T21:48:48.330Z,28.27
2022-08-17T21:51:28.677Z,26.58
2022-08-17T21:54:03.545Z,25.83
2022-08-17T21:56:38.260Z,27.50
2022-08-17T21:59:25.701Z,29.48
2022-08-17T22:01:58.487Z,26.45
2022-08-17T22:04:57.314Z,27.63
2022-08-17T22:07:47.003Z,28.23
2022-08-17T22:10:44.367Z,26.88
2022-08-17T22:13:17.610Z,28.15
2022-08-17T22:16:27.770Z,28.67
2022-08-17T22:18:58.258Z,29.02
2022-08-17T22:21:26.643Z,27.67
2022-08-17T22:24:04.677Z,27.67
2022-08-17T22:27:00.756Z,27.38
2022-08-17T22:29:57.224Z,30.13
2022-08-17T22:32:45.871Z,24.83
2022-08-17T22:35:43.621Z,27.45
2022-08-17T22:38:19.877Z,26.67
2022-08-17T22:40:53.821Z,24.52
2022-08-17T22:43:26.388Z,29.42
2022-08-17T22:45:58.930Z,29.20
2022-08-17T22:48:29.237Z,33.22
2022-08-17T22:51:14.194Z,30.25
2022-08-17T22:54:17.484Z,28.20
2022-08-17T22:57:23.801Z,29.92
2022-08-17T22:59:55.078Z,29.35
2022-08-17T23:02:32.871Z,29.65
2022-08-17T23:05:12.910Z,35.47
2022-08-17T23:07:45.887Z,33.92
2022-08-17T23:10:14.677Z,31.60
2022-08-17T23:12:42.138Z,32.17
2022-08-17T23:15:15.691Z,27.52
2022-08-17T23:17:42.675Z,27.33
2022-08-17T23:20:17.816Z,29.13
2022-08-17T23:22:52.852Z,31.25
2022-08-17T23:25:28.387Z,30.92
2022-08-17T23:27:58.401Z,33.58
2022-08-17T23:30:25.645Z,33.55
2022-08-17T23:32:54.491Z,33.67
2022-08-17T23:35:40.031Z,35.53
2022-08-17T23:38:10.514Z,33.75
2022-08-17T23:40:39.520Z,31.58
2022-08-17T23:43:24.852Z,28.35
2022-08-17T23:45:59.562Z,28.65
2022-08-17T23:48:35.146Z,28.95
2022-08-17T23:51:20.992Z,35.00
2022-08-17T23:53:55.462Z,37.22
2022-08-17T23:56:25.798Z,36.70
2022-08-17T23:58:55.333Z,33.63
